sensor_id;sensor_type;location;lat;lon;timestamp;pressure;altitude;pressure_sealevel;temperature;humidity
50105;BME280;47690;39.202;-77.198;2023-05-29T00:26:47;100068.13;;;49.84;8.55
50105;BME280;47690;39.202;-77.198;2023-05-29T00:29:17;100076.84;;;49.37;9.13
50105;BME280;47690;39.202;-77.198;2023-05-29T00:31:47;100065.88;;;49.37;8.87
50105;BME280;47690;39.202;-77.198;2023-05-29T00:34:22;100067.34;;;49.54;8.83
50105;BME280;47690;39.202;-77.198;2023-05-29T00:36:52;100068.78;;;49.46;9.44
50105;BME280;47690;39.202;-77.198;2023-05-29T00:39:23;100066.53;;;49.29;8.94
50105;BME280;47690;39.202;-77.198;2023-05-29T00:41:54;100069.56;;;49.22;9.46
50105;BME280;47690;39.202;-77.198;2023-05-29T00:44:26;100067.97;;;49.16;9.09
50105;BME280;47690;39.202;-77.198;2023-05-29T00:46:57;100078.16;;;49.10;9.28
50105;BME280;47690;39.202;-77.198;2023-05-29T00:49:27;100075.66;;;49.14;8.88
50105;BME280;47690;39.202;-77.198;2023-05-29T00:51:59;100081.31;;;49.22;8.92
50105;BME280;47690;39.202;-77.198;2023-05-29T00:54:31;100082.34;;;49.32;9.66
50105;BME280;47690;39.202;-77.198;2023-05-29T00:57:01;100085.59;;;49.34;9.34
50105;BME280;47690;39.202;-77.198;2023-05-29T00:59:33;100081.28;;;49.28;9.42
50105;BME280;47690;39.202;-77.198;2023-05-29T01:02:04;100087.81;;;49.32;9.42
50105;BME280;47690;39.202;-77.198;2023-05-29T01:04:37;100086.25;;;49.50;8.91
50105;BME280;47690;39.202;-77.198;2023-05-29T01:07:06;100085.91;;;49.32;9.47
50105;BME280;47690;39.202;-77.198;2023-05-29T01:09:41;100083.72;;;49.29;9.57
50105;BME280;47690;39.202;-77.198;2023-05-29T01:12:25;100082.97;;;49.18;9.19
50105;BME280;47690;39.202;-77.198;2023-05-29T01:15:31;100081.16;;;49.43;10.07
50105;BME280;47690;39.202;-77.198;2023-05-29T01:21:09;100073.94;;;49.23;9.73
50105;BME280;47690;39.202;-77.198;2023-05-29T01:26:51;100082.44;;;49.21;9.82
50105;BME280;47690;39.202;-77.198;2023-05-29T01:29:28;100084.03;;;48.93;9.85
50105;BME280;47690;39.202;-77.198;2023-05-29T01:32:04;100081.63;;;48.86;9.68
50105;BME280;47690;39.202;-77.198;2023-05-29T01:34:34;100091.53;;;48.72;9.39
50105;BME280;47690;39.202;-77.198;2023-05-29T01:37:09;100096.53;;;48.59;9.83
50105;BME280;47690;39.202;-77.198;2023-05-29T01:39:43;100098.47;;;48.59;9.94
50105;BME280;47690;39.202;-77.198;2023-05-29T01:42:16;100098.16;;;48.65;9.69
50105;BME280;47690;39.202;-77.198;2023-05-29T01:44:47;100101.19;;;48.59;9.57
50105;BME280;47690;39.202;-77.198;2023-05-29T01:47:18;100095.75;;;48.53;9.57
50105;BME280;47690;39.202;-77.198;2023-05-29T01:49:51;100101.97;;;48.64;9.96
50105;BME280;47690;39.202;-77.198;2023-05-29T01:52:22;100102.88;;;48.49;9.69
50105;BME280;47690;39.202;-77.198;2023-05-29T01:54:57;100100.03;;;48.70;9.69
50105;BME280;47690;39.202;-77.198;2023-05-29T01:57:28;100102.09;;;48.38;10.29
50105;BME280;47690;39.202;-77.198;2023-05-29T02:00:02;100107.03;;;48.31;10.47
50105;BME280;47690;39.202;-77.198;2023-05-29T02:02:42;100101.31;;;48.33;10.24
50105;BME280;47690;39.202;-77.198;2023-05-29T02:05:11;100107.63;;;48.28;10.25
50105;BME280;47690;39.202;-77.198;2023-05-29T02:07:44;100110.00;;;48.40;10.24
50105;BME280;47690;39.202;-77.198;2023-05-29T02:10:16;100113.00;;;48.44;9.95
50105;BME280;47690;39.202;-77.198;2023-05-29T02:12:49;100115.47;;;48.50;10.26
50105;BME280;47690;39.202;-77.198;2023-05-29T02:15:20;100116.53;;;48.49;10.42
50105;BME280;47690;39.202;-77.198;2023-05-29T02:17:50;100118.22;;;48.35;9.95
50105;BME280;47690;39.202;-77.198;2023-05-29T02:20:21;100115.47;;;48.50;10.01
50105;BME280;47690;39.202;-77.198;2023-05-29T02:22:53;100125.47;;;48.65;9.53
50105;BME280;47690;39.202;-77.198;2023-05-29T02:25:23;100115.47;;;48.50;10.23
50105;BME280;47690;39.202;-77.198;2023-05-29T02:27:54;100121.50;;;48.37;10.42
50105;BME280;47690;39.202;-77.198;2023-05-29T02:30:28;100116.25;;;48.46;10.04
50105;BME280;47690;39.202;-77.198;2023-05-29T02:33:03;100116.25;;;48.51;10.45
50105;BME280;47690;39.202;-77.198;2023-05-29T02:35:37;100120.09;;;48.45;10.20
50105;BME280;47690;39.202;-77.198;2023-05-29T02:38:11;100123.13;;;48.43;9.86
50105;BME280;47690;39.202;-77.198;2023-05-29T02:40:43;100113.72;;;48.65;10.03
50105;BME280;47690;39.202;-77.198;2023-05-29T02:43:15;100115.88;;;48.73;9.84
50105;BME280;47690;39.202;-77.198;2023-05-29T02:45:48;100116.13;;;48.72;9.61
50105;BME280;47690;39.202;-77.198;2023-05-29T02:48:18;100111.78;;;48.71;9.84
50105;BME280;47690;39.202;-77.198;2023-05-29T02:50:52;100107.91;;;48.77;9.95
50105;BME280;47690;39.202;-77.198;2023-05-29T02:53:21;100104.09;;;48.73;9.89
50105;BME280;47690;39.202;-77.198;2023-05-29T02:55:53;100112.31;;;48.67;10.35
50105;BME280;47690;39.202;-77.198;2023-05-29T02:58:28;100099.97;;;48.80;10.01
50105;BME280;47690;39.202;-77.198;2023-05-29T03:00:58;100099.53;;;48.63;10.34
50105;BME280;47690;39.202;-77.198;2023-05-29T03:03:30;100100.88;;;48.65;10.44
50105;BME280;47690;39.202;-77.198;2023-05-29T03:06:00;100101.19;;;48.59;10.56
50105;BME280;47690;39.202;-77.198;2023-05-29T03:08:38;100099.50;;;48.68;10.33
50105;BME280;47690;39.202;-77.198;2023-05-29T03:11:19;100094.47;;;48.86;10.06
50105;BME280;47690;39.202;-77.198;2023-05-29T03:13:59;100084.69;;;48.74;10.46
50105;BME280;47690;39.202;-77.198;2023-05-29T03:16:30;100080.13;;;48.64;10.49
50105;BME280;47690;39.202;-77.198;2023-05-29T03:19:00;100074.91;;;48.68;10.20
50105;BME280;47690;39.202;-77.198;2023-05-29T03:21:33;100068.81;;;48.76;10.04
50105;BME280;47690;39.202;-77.198;2023-05-29T03:24:07;100071.91;;;48.70;10.37
50105;BME280;47690;39.202;-77.198;2023-05-29T03:26:37;100074.06;;;48.67;10.03
50105;BME280;47690;39.202;-77.198;2023-05-29T03:29:14;100067.75;;;48.72;9.83
50105;BME280;47690;39.202;-77.198;2023-05-29T03:31:47;100063.03;;;48.88;10.11
50105;BME280;47690;39.202;-77.198;2023-05-29T03:34:25;100065.81;;;48.78;9.92
50105;BME280;47690;39.202;-77.198;2023-05-29T03:37:04;100065.22;;;48.81;10.29
50105;BME280;47690;39.202;-77.198;2023-05-29T03:39:33;100060.13;;;48.69;10.59
50105;BME280;47690;39.202;-77.198;2023-05-29T03:42:04;100056.34;;;48.65;10.54
50105;BME280;47690;39.202;-77.198;2023-05-29T03:44:34;100054.69;;;48.64;10.47
50105;BME280;47690;39.202;-77.198;2023-05-29T03:47:10;100044.22;;;48.76;10.35
50105;BME280;47690;39.202;-77.198;2023-05-29T03:49:45;100040.06;;;49.19;9.75
50105;BME280;47690;39.202;-77.198;2023-05-29T03:52:15;100029.94;;;48.90;10.06
50105;BME280;47690;39.202;-77.198;2023-05-29T03:54:45;100023.41;;;48.86;10.39
50105;BME280;47690;39.202;-77.198;2023-05-29T03:57:15;100026.31;;;49.00;10.09
50105;BME280;47690;39.202;-77.198;2023-05-29T03:59:45;100020.16;;;48.78;10.01
50105;BME280;47690;39.202;-77.198;2023-05-29T04:02:18;100020.41;;;48.87;9.91
50105;BME280;47690;39.202;-77.198;2023-05-29T04:04:56;100021.22;;;48.88;10.51
50105;BME280;47690;39.202;-77.198;2023-05-29T04:08:44;100021.63;;;49.00;9.43
50105;BME280;47690;39.202;-77.198;2023-05-29T04:11:16;100017.94;;;48.86;10.31
50105;BME280;47690;39.202;-77.198;2023-05-29T04:13:46;100012.31;;;48.72;9.87
50105;BME280;47690;39.202;-77.198;2023-05-29T04:16:19;100022.81;;;48.54;10.37
50105;BME280;47690;39.202;-77.198;2023-05-29T04:18:51;100030.28;;;48.38;10.63
50105;BME280;47690;39.202;-77.198;2023-05-29T04:21:23;100031.84;;;48.54;10.29
50105;BME280;47690;39.202;-77.198;2023-05-29T04:23:54;100036.47;;;48.54;10.62
50105;BME280;47690;39.202;-77.198;2023-05-29T04:26:25;100028.97;;;48.30;10.10
50105;BME280;47690;39.202;-77.198;2023-05-29T04:28:55;100035.03;;;48.17;10.84
50105;BME280;47690;39.202;-77.198;2023-05-29T04:31:32;100023.59;;;48.09;10.96
50105;BME280;47690;39.202;-77.198;2023-05-29T04:34:02;100028.28;;;47.98;11.03
50105;BME280;47690;39.202;-77.198;2023-05-29T04:36:34;100019.31;;;47.93;11.29
50105;BME280;47690;39.202;-77.198;2023-05-29T04:39:13;100028.03;;;47.95;10.97
50105;BME280;47690;39.202;-77.198;2023-05-29T04:41:44;100017.94;;;47.90;10.40
50105;BME280;47690;39.202;-77.198;2023-05-29T04:44:20;100000.94;;;48.09;10.58
50105;BME280;47690;39.202;-77.198;2023-05-29T04:46:53;99991.59;;;48.20;10.25
50105;BME280;47690;39.202;-77.198;2023-05-29T04:49:28;99983.72;;;48.08;10.84
50105;BME280;47690;39.202;-77.198;2023-05-29T04:51:57;99993.06;;;48.02;10.44
50105;BME280;47690;39.202;-77.198;2023-05-29T04:54:29;99993.06;;;48.02;10.26
50105;BME280;47690;39.202;-77.198;2023-05-29T04:57:00;99996.34;;;47.99;10.52
50105;BME280;47690;39.202;-77.198;2023-05-29T04:59:34;99993.19;;;47.71;10.95
50105;BME280;47690;39.202;-77.198;2023-05-29T05:02:08;99990.75;;;47.69;10.76
50105;BME280;47690;39.202;-77.198;2023-05-29T05:04:37;99980.72;;;47.49;11.19
50105;BME280;47690;39.202;-77.198;2023-05-29T05:07:09;99982.91;;;47.47;11.24
50105;BME280;47690;39.202;-77.198;2023-05-29T05:09:41;99976.06;;;47.55;11.22
50105;BME280;47690;39.202;-77.198;2023-05-29T05:12:19;99973.47;;;48.75;10.06
50105;BME280;47690;39.202;-77.198;2023-05-29T05:14:49;99976.03;;;47.65;10.83
50105;BME280;47690;39.202;-77.198;2023-05-29T05:17:19;99973.38;;;47.44;11.18
50105;BME280;47690;39.202;-77.198;2023-05-29T05:19:49;99973.38;;;47.34;11.32
50105;BME280;47690;39.202;-77.198;2023-05-29T05:22:18;99964.66;;;47.32;11.16
50105;BME280;47690;39.202;-77.198;2023-05-29T05:24:51;99958.66;;;47.30;11.28
50105;BME280;47690;39.202;-77.198;2023-05-29T05:27:24;99957.63;;;49.06;10.35
50105;BME280;47690;39.202;-77.198;2023-05-29T05:29:53;99958.00;;;47.75;10.87
50105;BME280;47690;39.202;-77.198;2023-05-29T05:32:26;99960.03;;;47.38;10.97
50105;BME280;47690;39.202;-77.198;2023-05-29T05:35:02;99958.13;;;47.28;11.38
50105;BME280;47690;39.202;-77.198;2023-05-29T05:37:34;99957.34;;;47.17;11.13
50105;BME280;47690;39.202;-77.198;2023-05-29T05:40:06;99958.69;;;47.19;11.11
50105;BME280;47690;39.202;-77.198;2023-05-29T05:42:50;99953.50;;;47.39;10.97
50105;BME280;47690;39.202;-77.198;2023-05-29T05:45:29;99954.34;;;47.18;11.30
50105;BME280;47690;39.202;-77.198;2023-05-29T05:48:00;99954.38;;;47.03;11.33
50105;BME280;47690;39.202;-77.198;2023-05-29T05:50:30;99945.91;;;46.94;11.27
50105;BME280;47690;39.202;-77.198;2023-05-29T05:52:59;99943.19;;;46.94;11.06
50105;BME280;47690;39.202;-77.198;2023-05-29T05:55:31;99936.38;;;46.91;11.13
50105;BME280;47690;39.202;-77.198;2023-05-29T05:58:04;99933.09;;;46.95;11.49
50105;BME280;47690;39.202;-77.198;2023-05-29T06:00:34;99929.84;;;46.87;11.38
50105;BME280;47690;39.202;-77.198;2023-05-29T06:03:08;99925.78;;;46.85;11.89
50105;BME280;47690;39.202;-77.198;2023-05-29T06:06:02;99925.34;;;48.79;10.57
50105;BME280;47690;39.202;-77.198;2023-05-29T06:08:38;99921.81;;;47.48;10.77
50105;BME280;47690;39.202;-77.198;2023-05-29T06:11:09;99925.47;;;47.02;10.99
50105;BME280;47690;39.202;-77.198;2023-05-29T06:13:45;99925.22;;;46.88;11.24
50105;BME280;47690;39.202;-77.198;2023-05-29T06:16:23;99933.69;;;46.81;11.26
50105;BME280;47690;39.202;-77.198;2023-05-29T06:18:53;99921.13;;;46.64;11.67
50105;BME280;47690;39.202;-77.198;2023-05-29T06:21:31;99923.88;;;46.75;11.75
50105;BME280;47690;39.202;-77.198;2023-05-29T06:24:05;99921.94;;;46.75;11.44
50105;BME280;47690;39.202;-77.198;2023-05-29T06:26:42;99915.97;;;46.73;11.59
50105;BME280;47690;39.202;-77.198;2023-05-29T06:29:20;99904.50;;;46.76;11.57
50105;BME280;47690;39.202;-77.198;2023-05-29T06:32:00;99907.78;;;46.73;11.54
50105;BME280;47690;39.202;-77.198;2023-05-29T06:34:47;99902.31;;;46.89;11.47
50105;BME280;47690;39.202;-77.198;2023-05-29T06:37:23;99901.50;;;46.73;11.14
50105;BME280;47690;39.202;-77.198;2023-05-29T06:39:57;99896.94;;;46.63;11.40
50105;BME280;47690;39.202;-77.198;2023-05-29T06:42:28;99893.94;;;46.59;11.50
50105;BME280;47690;39.202;-77.198;2023-05-29T06:45:01;99888.75;;;46.63;11.73
50105;BME280;47690;39.202;-77.198;2023-05-29T06:47:36;99893.91;;;46.64;11.29
50105;BME280;47690;39.202;-77.198;2023-05-29T06:50:17;99887.88;;;46.57;11.75
50105;BME280;47690;39.202;-77.198;2023-05-29T06:52:50;99886.28;;;46.51;11.42
50105;BME280;47690;39.202;-77.198;2023-05-29T06:55:49;99886.84;;;46.69;11.46
50105;BME280;47690;39.202;-77.198;2023-05-29T06:58:24;99885.75;;;46.70;11.47
50105;BME280;47690;39.202;-77.198;2023-05-29T07:00:56;99889.00;;;46.51;11.46
50105;BME280;47690;39.202;-77.198;2023-05-29T07:03:32;99894.16;;;46.53;11.64
50105;BME280;47690;39.202;-77.198;2023-05-29T07:06:04;99895.25;;;46.51;11.11
50105;BME280;47690;39.202;-77.198;2023-05-29T07:08:49;99899.09;;;46.61;11.65
50105;BME280;47690;39.202;-77.198;2023-05-29T07:11:24;99897.16;;;46.56;11.37
50105;BME280;47690;39.202;-77.198;2023-05-29T07:13:57;99895.00;;;46.53;11.22
50105;BME280;47690;39.202;-77.198;2023-05-29T07:16:26;99897.16;;;46.41;11.72
50105;BME280;47690;39.202;-77.198;2023-05-29T07:19:03;99891.19;;;46.38;11.68
50105;BME280;47690;39.202;-77.198;2023-05-29T07:21:37;99894.66;;;48.23;10.68
50105;BME280;47690;39.202;-77.198;2023-05-29T07:24:08;99899.06;;;46.97;10.83
50105;BME280;47690;39.202;-77.198;2023-05-29T07:26:40;99895.25;;;46.62;11.11
50105;BME280;47690;39.202;-77.198;2023-05-29T07:29:11;99894.44;;;46.46;11.44
50105;BME280;47690;39.202;-77.198;2023-05-29T07:31:52;99897.44;;;46.39;11.68
50105;BME280;47690;39.202;-77.198;2023-05-29T07:34:26;99891.97;;;46.18;11.64
50105;BME280;47690;39.202;-77.198;2023-05-29T07:37:06;99884.63;;;46.34;11.90
50105;BME280;47690;39.202;-77.198;2023-05-29T07:39:43;99883.53;;;46.20;11.33
50105;BME280;47690;39.202;-77.198;2023-05-29T07:42:40;99885.13;;;46.05;11.61
50105;BME280;47690;39.202;-77.198;2023-05-29T07:45:16;99873.97;;;45.91;12.00
50105;BME280;47690;39.202;-77.198;2023-05-29T07:47:48;99873.69;;;45.88;11.49
50105;BME280;47690;39.202;-77.198;2023-05-29T07:50:18;99873.69;;;45.88;11.44
50105;BME280;47690;39.202;-77.198;2023-05-29T07:52:48;99869.63;;;45.90;11.89
50105;BME280;47690;39.202;-77.198;2023-05-29T07:55:19;99867.69;;;45.91;11.74
50105;BME280;47690;39.202;-77.198;2023-05-29T07:57:52;99873.66;;;45.82;11.84
50105;BME280;47690;39.202;-77.198;2023-05-29T08:00:21;99872.59;;;45.89;11.29
50105;BME280;47690;39.202;-77.198;2023-05-29T08:02:56;99876.13;;;45.94;12.06
50105;BME280;47690;39.202;-77.198;2023-05-29T08:05:30;99880.22;;;45.87;11.97
50105;BME280;47690;39.202;-77.198;2023-05-29T08:08:05;99876.13;;;45.84;11.78
50105;BME280;47690;39.202;-77.198;2023-05-29T08:10:37;99881.91;;;46.34;11.24
50105;BME280;47690;39.202;-77.198;2023-05-29T08:13:08;99883.81;;;46.44;11.49
50105;BME280;47690;39.202;-77.198;2023-05-29T08:15:44;99885.19;;;46.52;11.19
50105;BME280;47690;39.202;-77.198;2023-05-29T08:18:17;99894.47;;;46.51;11.05
50105;BME280;47690;39.202;-77.198;2023-05-29T08:20:52;99890.63;;;46.52;11.66
50105;BME280;47690;39.202;-77.198;2023-05-29T08:23:24;99889.00;;;46.51;11.36
50105;BME280;47690;39.202;-77.198;2023-05-29T08:25:56;99894.44;;;46.30;11.93
50105;BME280;47690;39.202;-77.198;2023-05-29T08:28:29;99898.53;;;46.43;11.66
50105;BME280;47690;39.202;-77.198;2023-05-29T08:31:00;99906.97;;;46.47;11.66
50105;BME280;47690;39.202;-77.198;2023-05-29T08:33:30;99903.16;;;46.37;11.49
50105;BME280;47690;39.202;-77.198;2023-05-29T08:36:00;99911.34;;;46.37;11.54
50105;BME280;47690;39.202;-77.198;2023-05-29T08:38:34;99902.53;;;45.94;11.62
50105;BME280;47690;39.202;-77.198;2023-05-29T08:41:04;99906.53;;;45.76;12.08
50105;BME280;47690;39.202;-77.198;2023-05-29T08:43:43;99906.81;;;45.74;12.21
50105;BME280;47690;39.202;-77.198;2023-05-29T08:46:18;99909.69;;;46.52;11.64
50105;BME280;47690;39.202;-77.198;2023-05-29T08:48:53;99903.63;;;45.98;11.54
50105;BME280;47690;39.202;-77.198;2023-05-29T08:51:31;99901.69;;;45.83;11.55
50105;BME280;47690;39.202;-77.198;2023-05-29T08:54:04;99904.63;;;45.71;12.24
50105;BME280;47690;39.202;-77.198;2023-05-29T08:56:36;99903.78;;;45.65;11.76
50105;BME280;47690;39.202;-77.198;2023-05-29T08:59:07;99904.59;;;45.55;12.05
50105;BME280;47690;39.202;-77.198;2023-05-29T09:01:44;99906.22;;;45.62;12.25
50105;BME280;47690;39.202;-77.198;2023-05-29T09:04:15;99905.63;;;45.44;12.38
50105;BME280;47690;39.202;-77.198;2023-05-29T09:06:47;99910.22;;;45.43;12.18
50105;BME280;47690;39.202;-77.198;2023-05-29T09:09:24;99904.75;;;45.38;12.04
50105;BME280;47690;39.202;-77.198;2023-05-29T09:11:58;99902.38;;;45.52;12.41
50105;BME280;47690;39.202;-77.198;2023-05-29T09:14:49;99893.81;;;45.81;12.40
50105;BME280;47690;39.202;-77.198;2023-05-29T09:17:24;99902.16;;;45.59;12.05
50105;BME280;47690;39.202;-77.198;2023-05-29T09:20:00;99906.50;;;45.65;11.64
50105;BME280;47690;39.202;-77.198;2023-05-29T09:22:33;99915.50;;;45.66;12.20
50105;BME280;47690;39.202;-77.198;2023-05-29T09:25:05;99917.94;;;45.62;12.10
50105;BME280;47690;39.202;-77.198;2023-05-29T09:27:39;99909.75;;;45.57;12.47
50105;BME280;47690;39.202;-77.198;2023-05-29T09:30:31;99915.88;;;45.90;12.33
50105;BME280;47690;39.202;-77.198;2023-05-29T09:33:08;99924.22;;;45.73;12.13
50105;BME280;47690;39.202;-77.198;2023-05-29T09:35:47;99925.00;;;45.63;11.79
50105;BME280;47690;39.202;-77.198;2023-05-29T09:38:21;99928.78;;;45.52;11.99
50105;BME280;47690;39.202;-77.198;2023-05-29T09:41:22;99928.09;;;45.88;11.86
50105;BME280;47690;39.202;-77.198;2023-05-29T09:43:55;99927.03;;;46.04;11.92
50105;BME280;47690;39.202;-77.198;2023-05-29T09:46:26;99942.34;;;45.47;12.09
50105;BME280;47690;39.202;-77.198;2023-05-29T09:49:01;99944.81;;;45.48;12.41
50105;BME280;47690;39.202;-77.198;2023-05-29T09:51:36;99949.25;;;45.27;12.27
50105;BME280;47690;39.202;-77.198;2023-05-29T09:54:18;99950.25;;;45.53;12.41
50105;BME280;47690;39.202;-77.198;2023-05-29T09:56:50;99956.41;;;45.38;12.42
50105;BME280;47690;39.202;-77.198;2023-05-29T09:59:25;99954.81;;;45.42;11.88
50105;BME280;47690;39.202;-77.198;2023-05-29T10:02:05;99946.97;;;45.51;12.35
50105;BME280;47690;39.202;-77.198;2023-05-29T10:04:45;99952.81;;;45.27;12.50
50105;BME280;47690;39.202;-77.198;2023-05-29T10:07:27;99947.31;;;45.17;12.22
50105;BME280;47690;39.202;-77.198;2023-05-29T10:10:03;99939.81;;;45.35;12.02
50105;BME280;47690;39.202;-77.198;2023-05-29T10:12:37;99938.47;;;45.37;12.58
50105;BME280;47690;39.202;-77.198;2023-05-29T10:15:13;99932.72;;;45.92;11.88
50105;BME280;47690;39.202;-77.198;2023-05-29T10:21:29;99930.66;;;46.31;11.29
50105;BME280;47690;39.202;-77.198;2023-05-29T10:24:04;99930.66;;;46.31;11.40
50105;BME280;47690;39.202;-77.198;2023-05-29T10:26:39;99936.66;;;46.33;11.45
50105;BME280;47690;39.202;-77.198;2023-05-29T10:29:26;99930.09;;;46.39;11.74
50105;BME280;47690;39.202;-77.198;2023-05-29T10:38:16;99939.28;;;46.07;11.84
50105;BME280;47690;39.202;-77.198;2023-05-29T10:40:47;99945.16;;;45.73;12.12
50105;BME280;47690;39.202;-77.198;2023-05-29T10:43:34;99940.09;;;45.97;12.34
50105;BME280;47690;39.202;-77.198;2023-05-29T10:46:04;99943.13;;;45.47;11.91
50105;BME280;47690;39.202;-77.198;2023-05-29T10:48:37;99933.50;;;45.29;12.16
50105;BME280;47690;39.202;-77.198;2023-05-29T10:51:23;99926.03;;;45.47;12.60
50105;BME280;47690;39.202;-77.198;2023-05-29T10:53:54;99937.72;;;45.52;12.29
50105;BME280;47690;39.202;-77.198;2023-05-29T10:56:29;99932.88;;;45.60;12.69
50105;BME280;47690;39.202;-77.198;2023-05-29T10:59:02;99933.91;;;45.48;12.44
50105;BME280;47690;39.202;-77.198;2023-05-29T11:01:38;99935.63;;;45.65;12.21
50105;BME280;47690;39.202;-77.198;2023-05-29T11:06:52;99935.06;;;45.63;12.11
50105;BME280;47690;39.202;-77.198;2023-05-29T11:12:25;99938.75;;;46.05;12.46
50105;BME280;47690;39.202;-77.198;2023-05-29T11:15:06;99934.47;;;46.40;11.86
50105;BME280;47690;39.202;-77.198;2023-05-29T11:23:06;99930.34;;;46.17;12.00
50105;BME280;47690;39.202;-77.198;2023-05-29T11:25:38;99930.56;;;46.00;11.95
50105;BME280;47690;39.202;-77.198;2023-05-29T11:28:08;99932.56;;;46.46;11.93
50105;BME280;47690;39.202;-77.198;2023-05-29T11:30:48;99930.09;;;46.29;11.97
50105;BME280;47690;39.202;-77.198;2023-05-29T11:33:26;99932.84;;;46.34;12.27
50105;BME280;47690;39.202;-77.198;2023-05-29T11:35:59;99931.50;;;46.36;11.94
50105;BME280;47690;39.202;-77.198;2023-05-29T11:38:37;99930.13;;;46.44;11.91
50105;BME280;47690;39.202;-77.198;2023-05-29T11:41:06;99927.66;;;46.84;11.38
50105;BME280;47690;39.202;-77.198;2023-05-29T11:43:36;99935.28;;;46.92;11.37
50105;BME280;47690;39.202;-77.198;2023-05-29T11:46:39;99937.31;;;47.58;11.43
50105;BME280;47690;39.202;-77.198;2023-05-29T11:52:58;99954.09;;;46.84;11.91
50105;BME280;47690;39.202;-77.198;2023-05-29T11:55:36;99958.44;;;46.54;12.34
50105;BME280;47690;39.202;-77.198;2023-05-29T11:58:07;99966.34;;;46.45;12.26
50105;BME280;47690;39.202;-77.198;2023-05-29T12:01:09;99963.63;;;46.65;11.88
50105;BME280;47690;39.202;-77.198;2023-05-29T12:04:20;99956.53;;;46.80;12.25
50105;BME280;47690;39.202;-77.198;2023-05-29T12:06:53;99962.81;;;46.60;11.88
50105;BME280;47690;39.202;-77.198;2023-05-29T12:09:31;99960.91;;;46.71;12.16
50105;BME280;47690;39.202;-77.198;2023-05-29T12:12:04;99962.25;;;46.53;12.45
50105;BME280;47690;39.202;-77.198;2023-05-29T12:14:34;99957.38;;;46.60;11.75
50105;BME280;47690;39.202;-77.198;2023-05-29T12:17:07;99957.91;;;46.67;12.31
50105;BME280;47690;39.202;-77.198;2023-05-29T12:19:38;99967.72;;;46.73;12.16
50105;BME280;47690;39.202;-77.198;2023-05-29T12:22:08;99971.00;;;46.65;12.03
50105;BME280;47690;39.202;-77.198;2023-05-29T12:24:38;99967.44;;;46.64;12.06
50105;BME280;47690;39.202;-77.198;2023-05-29T12:27:16;99972.34;;;47.14;11.83
50105;BME280;47690;39.202;-77.198;2023-05-29T12:29:45;99969.81;;;47.49;12.04
50105;BME280;47690;39.202;-77.198;2023-05-29T12:32:19;99963.47;;;47.64;11.39
50105;BME280;47690;39.202;-77.198;2023-05-29T12:34:51;99965.97;;;47.55;11.91
50105;BME280;47690;39.202;-77.198;2023-05-29T12:37:22;99965.13;;;47.65;11.50
50105;BME280;47690;39.202;-77.198;2023-05-29T12:40:18;99955.94;;;48.01;11.91
50105;BME280;47690;39.202;-77.198;2023-05-29T12:42:57;99959.84;;;47.90;11.75
50105;BME280;47690;39.202;-77.198;2023-05-29T12:45:28;99973.03;;;47.62;11.63
50105;BME280;47690;39.202;-77.198;2023-05-29T12:48:03;99973.38;;;47.39;11.87
50105;BME280;47690;39.202;-77.198;2023-05-29T12:50:34;99967.91;;;47.55;12.10
50105;BME280;47690;39.202;-77.198;2023-05-29T12:53:13;99968.06;;;47.79;11.83
50105;BME280;47690;39.202;-77.198;2023-05-29T12:55:47;99967.97;;;47.95;11.64
50105;BME280;47690;39.202;-77.198;2023-05-29T12:58:17;99963.84;;;48.03;11.78
50105;BME280;47690;39.202;-77.198;2023-05-29T13:00:53;99966.25;;;48.09;11.80
50105;BME280;47690;39.202;-77.198;2023-05-29T13:03:25;99972.31;;;48.11;11.44
50105;BME280;47690;39.202;-77.198;2023-05-29T13:05:57;99977.22;;;48.04;11.69
50105;BME280;47690;39.202;-77.198;2023-05-29T13:08:28;99987.81;;;47.35;12.75
50105;BME280;47690;39.202;-77.198;2023-05-29T13:10:58;99992.22;;;47.30;12.47
50105;BME280;47690;39.202;-77.198;2023-05-29T13:13:26;99996.13;;;47.90;12.25
50105;BME280;47690;39.202;-77.198;2023-05-29T13:15:56;99995.09;;;47.81;12.41
50105;BME280;47690;39.202;-77.198;2023-05-29T13:18:28;100003.88;;;47.62;12.17
50105;BME280;47690;39.202;-77.198;2023-05-29T13:21:00;100004.19;;;47.45;12.29
50105;BME280;47690;39.202;-77.198;2023-05-29T13:23:30;100011.28;;;47.30;12.60
50105;BME280;47690;39.202;-77.198;2023-05-29T13:26:00;100009.69;;;47.14;12.38
50105;BME280;47690;39.202;-77.198;2023-05-29T13:28:38;100013.75;;;47.22;12.66
50105;BME280;47690;39.202;-77.198;2023-05-29T13:31:08;100021.41;;;47.19;12.68
50105;BME280;47690;39.202;-77.198;2023-05-29T13:33:45;100016.19;;;47.28;12.49
50105;BME280;47690;39.202;-77.198;2023-05-29T13:36:16;100017.81;;;47.35;12.40
50105;BME280;47690;39.202;-77.198;2023-05-29T13:38:47;100015.66;;;47.26;12.39
50105;BME280;47690;39.202;-77.198;2023-05-29T13:41:20;100014.53;;;47.43;12.43
50105;BME280;47690;39.202;-77.198;2023-05-29T13:43:50;100006.66;;;47.36;12.41
50105;BME280;47690;39.202;-77.198;2023-05-29T13:46:20;100001.78;;;48.04;12.26
50105;BME280;47690;39.202;-77.198;2023-05-29T13:48:51;100006.50;;;47.93;12.38
50105;BME280;47690;39.202;-77.198;2023-05-29T13:51:22;99994.84;;;48.27;11.54
50105;BME280;47690;39.202;-77.198;2023-05-29T13:54:00;99994.59;;;48.64;11.57
50105;BME280;47690;39.202;-77.198;2023-05-29T13:56:31;100006.75;;;47.92;12.17
50105;BME280;47690;39.202;-77.198;2023-05-29T13:59:02;100007.03;;;47.90;12.08
50105;BME280;47690;39.202;-77.198;2023-05-29T14:01:35;99995.81;;;47.97;11.92
50105;BME280;47690;39.202;-77.198;2023-05-29T14:04:05;100002.06;;;48.03;12.14
50105;BME280;47690;39.202;-77.198;2023-05-29T14:06:37;100002.56;;;48.60;12.38
50105;BME280;47690;39.202;-77.198;2023-05-29T14:09:07;99992.72;;;48.19;12.37
50105;BME280;47690;39.202;-77.198;2023-05-29T14:11:41;99985.63;;;48.93;11.32